createdAt,value
2023-04-22T00:03:59.693Z,96668.16
2023-04-22T00:09:21.074Z,96660.50
2023-04-22T00:14:42.108Z,96659.38
2023-04-22T00:20:02.728Z,96661.81
2023-04-22T00:25:23.381Z,96654.13
2023-04-22T00:30:43.974Z,96653.59
2023-04-22T00:36:04.868Z,96648.75
2023-04-22T00:41:27.400Z,96649.19
2023-04-22T00:46:49.881Z,96642.63
2023-04-22T00:52:10.846Z,96633.19
2023-04-22T00:57:32.625Z,96635.47
2023-04-22T01:02:55.765Z,96630.69
2023-04-22T01:08:17.578Z,96631.66
2023-04-22T01:13:38.380Z,96644.00
2023-04-22T01:18:59.190Z,96631.56
2023-04-22T01:24:20.072Z,96630.19
2023-04-22T01:29:41.322Z,96638.41
2023-04-22T01:35:02.801Z,96638.28
2023-04-22T01:40:25.969Z,96635.13
2023-04-22T01:45:47.111Z,96631.84
2023-04-22T01:51:07.880Z,96627.47
2023-04-22T01:56:28.588Z,96625.28
2023-04-22T02:01:50.190Z,96622.66
2023-04-22T02:07:12.650Z,96626.38
2023-04-22T02:12:33.532Z,96627.63
2023-04-22T02:17:54.662Z,96624.06
2023-04-22T02:23:15.449Z,96626.00
2023-04-22T02:28:37.073Z,96619.84
2023-04-22T02:33:57.785Z,96619.44
2023-04-22T02:39:18.887Z,96622.31
2023-04-22T02:44:40.020Z,96618.31
2023-04-22T02:50:00.756Z,96613.25
2023-04-22T02:55:24.685Z,96613.94
2023-04-22T03:00:45.698Z,96613.50
2023-04-22T03:06:06.573Z,96613.69
2023-04-22T03:11:27.701Z,96615.34
2023-04-22T03:16:48.455Z,96609.03
2023-04-22T03:22:09.871Z,96610.81
2023-04-22T03:27:31.144Z,96615.22
2023-04-22T03:32:53.660Z,96615.03
2023-04-22T03:38:19.573Z,96610.66
2023-04-22T03:43:41.784Z,96607.25
2023-04-22T03:49:04.057Z,96602.03
2023-04-22T03:54:28.377Z,96601.63
2023-04-22T03:59:50.499Z,96608.66
2023-04-22T04:05:12.603Z,96602.19
2023-04-22T04:10:34.630Z,96609.03
2023-04-22T04:15:58.585Z,96607.88
2023-04-22T04:21:20.756Z,96599.81
2023-04-22T04:26:45.078Z,96607.44
2023-04-22T04:32:14.287Z,96601.28
2023-04-22T04:37:37.159Z,96602.56
2023-04-22T04:43:04.767Z,96597.09
2023-04-22T04:48:36.101Z,96598.34
2023-04-22T04:54:01.362Z,96598.19
2023-04-22T04:59:28.606Z,96604.03
2023-04-22T05:04:50.109Z,96600.84
2023-04-22T05:10:11.712Z,96599.69
2023-04-22T05:15:32.965Z,96602.88
2023-04-22T05:20:54.254Z,96610.00
2023-04-22T05:26:17.298Z,96607.56
2023-04-22T05:31:41.339Z,96606.47
2023-04-22T05:37:03.748Z,96598.56
2023-04-22T05:42:25.825Z,96605.84
2023-04-22T05:47:46.517Z,96606.06
2023-04-22T05:53:08.251Z,96611.56
2023-04-22T05:58:29.012Z,96618.56
2023-04-22T06:03:55.122Z,96614.06
2023-04-22T06:09:17.216Z,96613.16
2023-04-22T06:14:37.941Z,96605.63
2023-04-22T06:19:59.232Z,96609.88
2023-04-22T06:25:19.839Z,96610.69
2023-04-22T06:30:40.615Z,96608.53
2023-04-22T06:36:01.672Z,96609.44
2023-04-22T06:41:24.920Z,96610.72
2023-04-22T06:46:49.206Z,96604.97
2023-04-22T06:52:35.958Z,96597.75
2023-04-22T06:57:56.927Z,96606.03
2023-04-22T07:03:17.653Z,96610.41
2023-04-22T07:08:43.962Z,96611.09
2023-04-22T09:55:02.432Z,96566.38
2023-04-22T10:00:27.730Z,96558.06
2023-04-22T10:05:48.715Z,96554.94
2023-04-22T10:11:09.844Z,96553.38
2023-04-22T10:16:34.085Z,96543.31
2023-04-22T10:21:58.581Z,96548.66
2023-04-22T10:27:22.545Z,96544.00
2023-04-22T10:32:43.499Z,96527.59
2023-04-22T10:44:00.522Z,96527.28
2023-04-22T10:49:23.610Z,96523.59
2023-04-22T10:54:44.211Z,96513.16
2023-04-22T11:00:23.954Z,96504.00
2023-04-22T11:05:45.147Z,96513.16
2023-04-22T11:11:11.150Z,96501.16
2023-04-22T11:16:32.284Z,96497.72
2023-04-22T11:21:53.464Z,96503.25
2023-04-22T11:27:14.076Z,96501.22
2023-04-22T11:32:36.198Z,96499.78
2023-04-22T11:37:59.896Z,96497.56
2023-04-22T11:43:20.851Z,96491.31
2023-04-22T11:48:41.568Z,96491.19
2023-04-22T11:54:03.468Z,96489.59
2023-04-22T11:59:25.182Z,96476.59
2023-04-22T12:04:46.578Z,96483.31
2023-04-22T12:10:07.949Z,96477.66
2023-04-22T12:15:38.190Z,96479.91
2023-04-22T12:21:06.136Z,96471.38
2023-04-22T12:26:27.853Z,96461.59
2023-04-22T12:31:48.650Z,96451.41
2023-04-22T12:37:09.338Z,96459.59
2023-04-22T12:42:30.066Z,96451.31
2023-04-22T12:47:53.836Z,96443.16
2023-04-22T12:53:15.612Z,96437.50
2023-04-22T12:58:36.426Z,96423.25
2023-04-22T13:03:57.382Z,96423.66
2023-04-22T13:09:18.565Z,96417.34
2023-04-22T13:14:39.664Z,96417.56
2023-04-22T13:20:01.029Z,96415.16
2023-04-22T13:25:21.744Z,96410.25
2023-04-22T13:30:42.564Z,96405.16
2023-04-22T13:36:03.320Z,96402.50
2023-04-22T13:41:24.124Z,96397.25
2023-04-22T13:46:44.725Z,96404.56
2023-04-22T13:52:05.719Z,96398.28
2023-04-22T13:57:26.736Z,96390.91
2023-04-22T14:02:48.084Z,96389.50
2023-04-22T14:08:08.977Z,96377.13
2023-04-22T14:13:30.558Z,96374.25
2023-04-22T14:18:51.477Z,96371.00
2023-04-22T14:24:12.270Z,96368.16
2023-04-22T14:29:33.100Z,96367.34
2023-04-22T14:34:53.736Z,96367.34
2023-04-22T14:40:14.747Z,96361.44
2023-04-22T14:45:36.050Z,96364.72
2023-04-22T14:50:58.287Z,96357.00
2023-04-22T14:56:19.111Z,96357.81
2023-04-22T15:01:41.910Z,96350.09
2023-04-22T15:07:02.786Z,96351.72
2023-04-22T15:12:24.553Z,96343.78
2023-04-22T15:17:45.722Z,96336.44
2023-04-22T15:23:06.622Z,96331.78
2023-04-22T15:28:27.510Z,96344.38
2023-04-22T15:33:48.099Z,96335.88
2023-04-22T15:39:10.783Z,96337.91
2023-04-22T15:44:31.837Z,96331.97
2023-04-22T15:49:52.697Z,96329.13
2023-04-22T15:55:13.506Z,96331.53
2023-04-22T16:00:34.401Z,96329.13
2023-04-22T16:05:55.526Z,96318.56
2023-04-22T16:11:16.465Z,96320.78
2023-04-22T16:16:39.830Z,96316.91
2023-04-22T16:22:00.746Z,96312.88
2023-04-22T16:27:21.419Z,96305.53
2023-04-22T16:32:42.532Z,96301.47
2023-04-22T16:38:03.412Z,96289.50
2023-04-22T16:43:24.244Z,96282.59
2023-04-22T16:48:44.992Z,96284.22
2023-04-22T16:54:06.397Z,96286.66
2023-04-22T16:59:27.581Z,96290.06
2023-04-22T17:04:48.403Z,96278.94
2023-04-22T17:10:09.119Z,96282.97
2023-04-22T17:15:29.711Z,96276.47
2023-04-22T17:20:50.413Z,96274.81
2023-04-22T17:26:11.210Z,96271.38
2023-04-22T17:31:33.558Z,96272.75
2023-04-22T17:36:54.046Z,96274.53
2023-04-22T17:42:14.988Z,96266.63
2023-04-22T17:47:35.705Z,96271.06
2023-04-22T17:52:56.499Z,96274.88
2023-04-22T17:58:17.051Z,96272.84
2023-04-22T18:03:37.972Z,96274.69
2023-04-22T18:08:58.856Z,96271.00
2023-04-22T18:14:21.564Z,96279.47
2023-04-22T18:19:44.646Z,96285.88
2023-04-22T18:25:06.161Z,96295.56
2023-04-22T18:30:26.976Z,96300.72
2023-04-22T18:35:47.702Z,96307.31
2023-04-22T18:41:11.040Z,96313.97
2023-04-22T18:46:32.024Z,96317.19
2023-04-22T18:51:54.689Z,96316.69
2023-04-22T18:57:15.503Z,96319.47
2023-04-22T19:02:39.208Z,96328.47
2023-04-22T19:08:04.116Z,96321.59
2023-04-22T19:13:29.620Z,96330.41
2023-04-22T19:18:51.351Z,96331.81
2023-04-22T19:24:14.302Z,96335.69
2023-04-22T19:29:35.055Z,96331.81
2023-04-22T19:34:55.946Z,96335.53
2023-04-22T19:40:18.674Z,96339.34
2023-04-22T19:45:40.133Z,96338.25
2023-04-22T19:51:01.245Z,96332.00
2023-04-22T19:56:22.466Z,96338.41
2023-04-22T20:01:43.723Z,96334.97
2023-04-22T20:07:06.931Z,96333.81
2023-04-22T20:12:29.534Z,96329.91
2023-04-22T20:17:51.738Z,96329.16
2023-04-22T20:23:14.447Z,96325.78
2023-04-22T20:28:45.335Z,96326.03
2023-04-22T20:34:06.478Z,96329.56
2023-04-22T20:39:28.543Z,96328.16
2023-04-22T20:44:49.328Z,96316.53
2023-04-22T20:50:10.625Z,96315.16
2023-04-22T20:55:31.761Z,96323.72
2023-04-22T21:00:52.641Z,96319.00
2023-04-22T21:06:13.916Z,96311.81
2023-04-22T21:11:35.039Z,96311.03
2023-04-22T21:17:25.672Z,96318.06
2023-04-22T21:22:47.102Z,96313.53
2023-04-22T21:28:08.217Z,96312.22
2023-04-22T21:33:29.198Z,96310.13
2023-04-22T21:38:50.724Z,96314.06
2023-04-22T21:44:11.739Z,96308.81
2023-04-22T21:49:32.598Z,96316.94
2023-04-22T21:54:53.945Z,96302.50
2023-04-22T22:00:18.693Z,96307.69
2023-04-22T22:05:40.002Z,96307.34
2023-04-22T22:11:00.902Z,96305.66
2023-04-22T22:16:21.901Z,96302.94
2023-04-22T22:21:42.725Z,96310.66
2023-04-22T22:27:05.029Z,96306.41
2023-04-22T22:32:26.011Z,96305.47
2023-04-22T22:37:46.947Z,96308.28
2023-04-22T22:43:07.836Z,96311.25
2023-04-22T22:48:28.753Z,96314.22
2023-04-22T22:53:49.538Z,96320.91
2023-04-22T22:59:10.497Z,96308.16
2023-04-22T23:04:31.546Z,96316.41
2023-04-22T23:09:52.559Z,96313.53
2023-04-22T23:15:13.324Z,96306.03
2023-04-22T23:20:35.167Z,96301.31
2023-04-22T23:25:57.114Z,96305.75
2023-04-22T23:31:19.853Z,96306.16
2023-04-22T23:36:41.027Z,96298.44
2023-04-22T23:42:01.953Z,96292.19
2023-04-22T23:47:22.906Z,96283.19
2023-04-22T23:52:45.124Z,96282.03
2023-04-22T23:58:05.986Z,96284.75
